LIMJ/GOA METAR and TAF weather

Enter ICAO airport designator
Station Type Date Time Source
LIMJ METAR 2020/10/22 02:50 UTC NOAA

LIMJ 220250Z AUTO VRB02KT 9999 BKN028/// 16/11 Q1023


Station Type Date Time Source
LIMJ Decoded METAR 2020/10/22 02:50 UTC NOAA

Genova / Sestri, Italy (LIMJ) 44-25N 008-51E 3M
Oct 21, 2020 - 10:50 PM EDT / 2020.10.22 0250 UTC
Wind: Variable at 2 MPH (2 KT):0
Visibility: greater than 7 mile(s):0
Sky conditions: mostly cloudy
Temperature: 60 F (16 C)
Dew Point: 51 F (11 C)
Relative Humidity: 72%
Pressure (altimeter): 30.21 in. Hg (1023 hPa)
ob: LIMJ 220250Z AUTO VRB02KT 9999 BKN028/// 16/11 Q1023
cycle: 3

Station Type Date Time Source
LIMJ TAF 2020/10/21 18:26 UTC NOAA

TAF LIMJ 211700Z 2118/2218 12007KT 9999 SCT020 SCT040
TEMPO 2203/2218 SHRA

Example: see airport list